Time;durP1;ratioP1;P1;durP2;ratioP2;P2;SDS_P1;SDS_P2;PMS_P1;PMS_P2;Temp;Humidity;BMP_temperature;BMP_pressure;BME280_temperature;BME280_humidity;BME280_pressure;Samples;Min_cycle;Max_cycle;Signal;HPM_P1;HPM_P2
2022/03/15 00:00:20;;;;;;;34.20;17.98;;;;;;;10.58;42.73;101595.34;4959040;28;97166;-82
2022/03/15 00:02:46;;;;;;;28.95;17.55;;;;;;;10.56;43.22;101598.88;4987435;28;97247;-83
2022/03/15 00:05:12;;;;;;;29.23;16.85;;;;;;;10.49;43.54;101598.13;4950390;28;101304;-83
2022/03/15 00:07:37;;;;;;;28.15;15.52;;;;;;;10.46;43.37;101595.53;4970907;28;97397;-83
2022/03/15 00:10:04;;;;;;;33.15;15.23;;;;;;;10.25;43.81;101572.16;4962148;28;96777;-83
2022/03/15 00:12:30;;;;;;;29.00;14.75;;;;;;;10.29;43.33;101582.63;4987079;28;96872;-83
2022/03/15 00:14:56;;;;;;;24.38;14.00;;;;;;;10.36;44.18;101596.56;4925607;28;101474;-83
2022/03/15 00:17:23;;;;;;;31.67;15.40;;;;;;;10.27;43.61;101570.41;4965729;28;100976;-83
2022/03/15 00:19:49;;;;;;;24.85;13.05;;;;;;;10.37;44.34;101591.28;4938310;28;96898;-83
2022/03/15 00:22:15;;;;;;;25.08;14.40;;;;;;;10.31;44.69;101580.00;4981851;28;97175;-83
2022/03/15 00:24:42;;;;;;;22.30;12.80;;;;;;;10.34;44.75;101593.94;4957936;28;101245;-84
2022/03/15 00:27:10;;;;;;;25.35;14.07;;;;;;;10.40;45.03;101593.00;4974981;28;101048;-83
2022/03/15 00:29:38;;;;;;;32.45;13.98;;;;;;;10.39;44.57;101605.25;4963938;28;97695;-84
2022/03/15 00:32:04;;;;;;;25.15;12.93;;;;;;;10.38;44.68;101592.13;4942239;28;96939;-83
2022/03/15 00:34:30;;;;;;;24.33;13.57;;;;;;;10.38;45.06;101590.41;4961652;28;101282;-83
2022/03/15 00:36:56;;;;;;;29.38;12.00;;;;;;;10.39;46.09;101609.63;4989175;28;100901;-83
2022/03/15 00:39:21;;;;;;;20.92;11.63;;;;;;;10.37;45.87;101606.16;4944443;28;97012;-82
2022/03/15 00:41:47;;;;;;;25.40;12.48;;;;;;;10.43;46.17;101619.19;4961449;28;97324;-83
2022/03/15 00:44:12;;;;;;;20.13;11.23;;;;;;;10.49;46.37;101619.13;4958436;28;102029;-83
2022/03/15 00:46:38;;;;;;;24.40;12.57;;;;;;;10.43;46.40;101612.19;4976867;28;99889;-83
2022/03/15 00:49:04;;;;;;;19.67;11.55;;;;;;;10.46;46.79;101608.66;4973287;28;96667;-84
2022/03/15 00:51:32;;;;;;;21.02;11.20;;;;;;;10.53;46.69;101626.09;4990110;28;96907;-82
2022/03/15 00:54:01;;;;;;;22.08;11.00;;;;;;;10.48;46.86;101612.13;4960139;28;100712;-83
2022/03/15 00:56:27;;;;;;;18.90;11.10;;;;;;;10.53;46.71;101615.59;4968301;28;99915;-83
2022/03/15 00:58:52;;;;;;;15.40;10.57;;;;;;;10.53;46.90;101612.06;5005145;28;97275;-82
2022/03/15 01:01:18;;;;;;;20.70;10.10;;;;;;;10.48;46.92;101612.13;4988788;28;97077;-82
2022/03/15 01:03:43;;;;;;;21.65;10.93;;;;;;;10.49;47.01;101610.38;4967798;28;101732;-83
2022/03/15 01:06:09;;;;;;;18.05;11.07;;;;;;;10.50;46.85;101606.84;4964557;28;97369;-83
2022/03/15 01:08:36;;;;;;;17.80;10.35;;;;;;;10.54;47.01;101605.94;4992531;28;96797;-83
2022/03/15 01:11:05;;;;;;;16.00;10.85;;;;;;;10.53;47.09;101615.59;4956068;28;97244;-83
2022/03/15 01:13:31;;;;;;;16.42;9.93;;;;;;;10.43;47.74;101608.69;4955622;28;98050;-83
2022/03/15 01:15:57;;;;;;;20.05;11.07;;;;;;;10.50;47.56;101614.72;4972842;28;101387;-83
2022/03/15 01:18:23;;;;;;;17.35;10.40;;;;;;;10.46;47.78;101607.78;4989069;28;97105;-83
2022/03/15 01:20:51;;;;;;;16.40;10.48;;;;;;;10.46;47.70;101613.03;4992933;28;98285;-83
2022/03/15 01:23:17;;;;;;;19.65;10.73;;;;;;;10.50;47.56;101610.38;4975898;28;101238;-83
2022/03/15 01:25:43;;;;;;;15.73;9.48;;;;;;;10.45;47.81;101612.19;4976092;28;101237;-83
2022/03/15 01:28:09;;;;;;;17.42;10.40;;;;;;;10.29;47.96;101613.25;4966486;28;97271;-82
2022/03/15 01:30:35;;;;;;;17.20;10.57;;;;;;;10.27;48.20;101612.41;4984890;28;97340;-83
2022/03/15 01:33:00;;;;;;;17.85;10.65;;;;;;;10.25;48.17;101616.78;4949752;28;97751;-84
2022/03/15 01:35:26;;;;;;;17.23;9.77;;;;;;;10.20;48.05;101607.19;4959823;28;101238;-83
2022/03/15 01:37:52;;;;;;;18.98;10.88;;;;;;;10.25;48.38;101608.91;4958383;28;96922;-83
2022/03/15 01:40:17;;;;;;;16.15;10.55;;;;;;;10.06;48.51;101585.50;5001529;28;97273;-83
2022/03/15 01:42:43;;;;;;;16.45;9.05;;;;;;;10.13;48.46;101595.03;4941390;28;101501;-83
2022/03/15 01:45:10;;;;;;;14.80;9.07;;;;;;;10.18;48.68;101601.13;4954902;28;98401;-83
2022/03/15 01:47:37;;;;;;;15.68;9.35;;;;;;;9.93;48.57;101574.28;4957803;28;96848;-82
2022/03/15 01:50:03;;;;;;;16.48;8.98;;;;;;;10.05;48.49;101589.00;4988567;28;97433;-82
2022/03/15 01:52:29;;;;;;;19.63;10.93;;;;;;;10.02;48.22;101590.81;4961848;28;97609;-82
2022/03/15 01:54:55;;;;;;;16.77;9.20;;;;;;;10.07;48.68;101602.13;4954398;28;101331;-82
2022/03/15 01:57:20;;;;;;;17.60;9.30;;;;;;;10.11;48.38;101609.94;4953848;28;96800;-82
2022/03/15 01:59:46;;;;;;;15.70;9.52;;;;;;;10.11;48.45;101609.94;4949782;28;96974;-82
2022/03/15 02:02:12;;;;;;;16.73;9.73;;;;;;;10.12;48.27;101611.69;4939195;28;100974;-83
2022/03/15 02:04:38;;;;;;;15.50;9.13;;;;;;;10.02;48.33;101583.81;4978646;28;98396;-83
2022/03/15 02:07:09;;;;;;;20.92;10.68;;;;;;;10.03;48.50;101598.66;4987963;28;96727;-83
2022/03/15 02:09:35;;;;;;;17.57;10.27;;;;;;;10.07;48.56;101597.75;4960152;28;97441;-82
2022/03/15 02:12:01;;;;;;;19.02;9.73;;;;;;;10.05;48.35;101596.03;4947004;28;101234;-82
2022/03/15 02:14:27;;;;;;;24.00;10.70;;;;;;;9.95;48.45;101595.25;4968230;28;101414;-83
2022/03/15 02:16:53;;;;;;;25.98;10.05;;;;;;;9.90;48.84;101597.06;4946940;28;97167;-82
2022/03/15 02:19:19;;;;;;;15.93;10.10;;;;;;;9.82;48.82;101598.91;4969497;28;97184;-82
2022/03/15 02:21:45;;;;;;;18.60;10.52;;;;;;;9.89;48.76;101588.34;4937411;28;101864;-82
2022/03/15 02:24:10;;;;;;;19.23;10.40;;;;;;;9.91;48.69;101597.03;4946558;28;98061;-83
2022/03/15 02:26:36;;;;;;;16.73;9.27;;;;;;;9.86;48.30;101583.13;4948995;28;96837;-82
2022/03/15 02:29:01;;;;;;;21.77;10.57;;;;;;;9.94;48.16;101591.75;4942153;28;96823;-82
2022/03/15 02:31:27;;;;;;;18.33;9.38;;;;;;;9.90;48.33;101597.94;4951800;28;97373;-82
2022/03/15 02:33:53;;;;;;;16.58;9.02;;;;;;;9.87;48.26;101591.84;4967386;28;101452;-82
2022/03/15 02:36:19;;;;;;;18.30;9.82;;;;;;;9.85;48.31;101604.97;4939132;28;97308;-82
2022/03/15 02:38:45;;;;;;;17.45;10.00;;;;;;;9.80;48.94;101604.13;4937444;28;98365;-82
2022/03/15 02:41:11;;;;;;;17.50;9.18;;;;;;;9.71;49.08;101589.38;4938805;28;102169;-82
2022/03/15 02:43:37;;;;;;;15.25;9.52;;;;;;;9.60;49.04;101586.03;4958326;28;100855;-83
2022/03/15 02:46:03;;;;;;;14.43;9.38;;;;;;;9.53;49.60;101585.19;4959336;28;97034;-82
2022/03/15 02:48:28;;;;;;;15.98;9.40;;;;;;;9.48;49.64;101589.63;4943481;28;97074;-82
2022/03/15 02:50:55;;;;;;;18.02;9.65;;;;;;;9.44;49.37;101582.66;4965555;28;97558;-82
2022/03/15 02:53:20;;;;;;;14.50;9.05;;;;;;;9.29;49.43;101565.31;4956275;28;101288;-82
2022/03/15 02:55:46;;;;;;;14.73;8.30;;;;;;;9.29;49.96;101582.81;4934910;28;98196;-82
2022/03/15 02:58:12;;;;;;;14.93;8.90;;;;;;;9.21;49.98;101585.47;4959078;28;97238;-82
2022/03/15 03:00:38;;;;;;;15.07;8.35;;;;;;;9.09;50.40;101582.97;4944784;28;101480;-82
2022/03/15 03:03:04;;;;;;;15.23;8.35;;;;;;;8.98;51.22;101590.91;4953675;28;101322;-81
2022/03/15 03:05:30;;;;;;;13.05;8.02;;;;;;;9.02;50.83;101589.16;4955286;28;97259;-83
2022/03/15 03:07:55;;;;;;;16.58;8.43;;;;;;;9.03;50.99;101591.72;4941991;28;96987;-81
2022/03/15 03:10:21;;;;;;;15.30;8.38;;;;;;;8.98;50.82;101588.28;4959245;28;97931;-82
2022/03/15 03:12:49;;;;;;;13.77;8.30;;;;;;;8.80;51.27;101589.28;4971222;28;98085;-81
2022/03/15 03:15:17;;;;;;;14.23;8.07;;;;;;;8.77;51.13;101580.59;4928136;28;97280;-82
2022/03/15 03:17:42;;;;;;;12.55;6.80;;;;;;;8.76;51.60;101597.19;4928405;28;97388;-83
2022/03/15 03:20:14;;;;;;;15.82;8.02;;;;;;;8.76;51.74;101605.03;4955939;28;101784;-81
2022/03/15 03:22:41;;;;;;;16.52;7.68;;;;;;;8.66;51.91;101608.56;4993770;28;101544;-82
2022/03/15 03:25:09;;;;;;;10.75;6.60;;;;;;;8.71;51.29;101602.44;4984155;28;97083;-82
2022/03/15 03:27:35;;;;;;;11.27;6.20;;;;;;;8.74;51.31;101591.06;5005278;28;97244;-81
2022/03/15 03:30:02;;;;;;;10.57;6.53;;;;;;;8.84;51.43;101611.06;4985314;28;100766;-81
2022/03/15 03:32:28;;;;;;;12.65;7.00;;;;;;;8.83;51.18;101609.34;4985646;28;101116;-82
2022/03/15 03:34:54;;;;;;;12.20;7.03;;;;;;;8.59;51.78;101586.81;4994375;28;96822;-81
2022/03/15 03:37:20;;;;;;;12.77;7.03;;;;;;;8.65;52.11;101610.31;5006482;28;97231;-81
2022/03/15 03:39:46;;;;;;;14.32;6.65;;;;;;;8.63;51.62;101608.59;4977704;28;100929;-81
2022/03/15 03:42:13;;;;;;;13.38;6.95;;;;;;;8.54;52.06;101606.88;4973621;28;100723;-82
2022/03/15 03:44:41;;;;;;;12.63;6.72;;;;;;;8.62;51.48;101618.19;4961538;28;97350;-81
2022/03/15 03:47:07;;;;;;;16.40;6.95;;;;;;;8.63;52.04;101619.91;4965872;28;96797;-82
2022/03/15 03:49:32;;;;;;;15.48;7.10;;;;;;;8.68;51.58;101623.38;4977925;28;101583;-81
2022/03/15 03:51:59;;;;;;;12.15;6.97;;;;;;;8.68;51.64;101626.00;5013716;28;97968;-81
2022/03/15 03:54:25;;;;;;;12.52;6.38;;;;;;;8.75;51.64;101616.38;5009505;28;96794;-82
2022/03/15 03:56:51;;;;;;;11.30;5.80;;;;;;;8.74;52.08;101623.34;5046329;27;97012;-82
2022/03/15 03:59:17;;;;;;;10.45;6.20;;;;;;;8.74;52.26;101620.72;4980950;28;100929;-81
2022/03/15 04:01:44;;;;;;;10.00;5.93;;;;;;;8.77;51.79;101617.22;4997137;28;101432;-82
2022/03/15 04:04:10;;;;;;;13.93;7.10;;;;;;;8.79;52.18;101610.25;5015814;28;96644;-81
2022/03/15 04:06:38;;;;;;;11.13;6.05;;;;;;;8.84;51.71;101614.59;4978520;28;100056;-81
2022/03/15 04:09:04;;;;;;;8.93;5.80;;;;;;;8.78;51.95;101604.13;4976493;28;101553;-83
2022/03/15 04:11:31;;;;;;;11.13;6.13;;;;;;;8.94;51.53;101623.22;4977028;28;101227;-81
2022/03/15 04:14:03;;;;;;;10.77;5.50;;;;;;;8.86;52.41;101614.56;4994620;28;97179;-81
2022/03/15 04:16:30;;;;;;;9.77;6.05;;;;;;;8.91;52.00;101623.25;4974224;28;96956;-82
2022/03/15 04:18:56;;;;;;;13.48;5.47;;;;;;;8.97;51.50;101615.34;4989988;28;101119;-82
2022/03/15 04:21:25;;;;;;;13.73;5.47;;;;;;;8.98;51.84;101610.97;4993669;28;101714;-82
2022/03/15 04:23:51;;;;;;;9.80;5.32;;;;;;;9.03;52.26;101612.69;4966868;28;97847;-83
2022/03/15 04:26:17;;;;;;;8.15;4.97;;;;;;;8.96;51.86;101616.25;5002802;28;97143;-82
2022/03/15 04:28:43;;;;;;;13.30;5.63;;;;;;;8.86;51.88;101608.44;4974070;28;101007;-82
2022/03/15 04:31:08;;;;;;;18.55;6.30;;;;;;;8.88;51.91;101620.66;4976190;28;101358;-82
2022/03/15 04:33:34;;;;;;;11.63;5.57;;;;;;;8.97;52.35;101627.59;4978819;28;97107;-83
2022/03/15 04:35:59;;;;;;;13.07;6.00;;;;;;;8.99;51.90;101618.84;4981591;28;97349;-82
2022/03/15 04:38:25;;;;;;;14.05;5.90;;;;;;;9.03;52.33;101615.31;4969379;28;97372;-82
2022/03/15 04:40:52;;;;;;;9.38;5.65;;;;;;;8.99;51.85;101621.47;4988918;28;101657;-82
2022/03/15 04:43:18;;;;;;;9.93;6.20;;;;;;;8.86;52.32;101601.47;5010401;28;97598;-82
2022/03/15 04:45:43;;;;;;;16.75;5.88;;;;;;;8.98;52.18;101622.31;4984613;28;96783;-81
2022/03/15 04:48:09;;;;;;;17.02;6.47;;;;;;;9.04;51.96;101624.91;4970471;28;98081;-82
2022/03/15 04:50:35;;;;;;;11.23;5.88;;;;;;;9.03;52.07;101624.91;4987010;28;101105;-81
2022/03/15 04:53:00;;;;;;;15.45;5.85;;;;;;;9.00;52.11;101627.56;5016459;28;97227;-82
2022/03/15 04:55:26;;;;;;;14.95;6.28;;;;;;;9.01;52.39;101627.53;5000140;28;96866;-82
2022/03/15 04:57:52;;;;;;;14.23;6.72;;;;;;;9.00;52.35;101632.81;5003441;28;101033;-81
2022/03/15 05:00:18;;;;;;;13.65;6.72;;;;;;;9.05;51.96;101638.88;4973870;28;100966;-81
2022/03/15 05:02:45;;;;;;;12.13;6.45;;;;;;;9.07;52.40;101644.97;4969446;28;97104;-82
2022/03/15 05:05:13;;;;;;;12.02;6.55;;;;;;;9.03;51.73;101638.03;4993708;28;97018;-82
2022/03/15 05:07:39;;;;;;;11.95;6.60;;;;;;;9.08;52.32;101649.34;4996087;28;101389;-81
2022/03/15 05:12:49;;;;;;;11.00;6.32;;;;;;;9.10;52.18;101636.22;4991804;28;96980;-82
2022/03/15 05:15:15;;;;;;;16.80;7.00;;;;;;;9.08;52.43;101638.88;4998089;28;96888;-81
2022/03/15 05:17:40;;;;;;;12.57;6.45;;;;;;;9.02;52.24;101631.91;4978942;28;101927;-82
2022/03/15 05:20:07;;;;;;;22.05;8.23;;;;;;;9.07;52.25;101645.84;4971632;28;97862;-82
2022/03/15 05:22:33;;;;;;;17.15;6.85;;;;;;;8.99;52.92;101641.56;4939480;28;97371;-82
2022/03/15 05:24:59;;;;;;;20.55;7.10;;;;;;;8.88;52.71;101615.41;4949449;28;97099;-82
2022/03/15 05:27:25;;;;;;;13.85;7.70;;;;;;;9.04;52.71;101635.38;4970177;28;98874;-81
2022/03/15 05:29:54;;;;;;;18.58;7.28;;;;;;;9.09;53.03;101640.59;4940589;28;101536;-81
2022/03/15 05:32:19;;;;;;;20.02;6.95;;;;;;;9.04;52.85;101632.75;4956371;28;97285;-81
2022/03/15 05:34:46;;;;;;;14.98;7.80;;;;;;;9.07;52.75;101634.47;4956805;28;97039;-81
2022/03/15 05:37:11;;;;;;;15.68;7.75;;;;;;;9.10;52.53;101633.59;4939764;28;101335;-81
2022/03/15 05:39:37;;;;;;;16.90;6.80;;;;;;;9.03;52.85;101624.91;4973262;28;97987;-82
2022/03/15 05:42:03;;;;;;;14.30;6.97;;;;;;;9.04;52.97;101632.75;4921507;28;97903;-82
2022/03/15 05:44:29;;;;;;;21.15;7.70;;;;;;;9.09;53.04;101637.09;4943591;28;96787;-81
2022/03/15 05:46:55;;;;;;;15.45;7.03;;;;;;;9.05;52.61;101623.16;4949250;28;101186;-81
2022/03/15 05:49:21;;;;;;;18.75;7.57;;;;;;;8.93;53.16;101584.84;4960838;28;97899;-81
2022/03/15 05:51:47;;;;;;;13.57;7.65;;;;;;;9.11;53.20;101612.66;4947306;28;97159;-81
2022/03/15 05:54:12;;;;;;;17.17;8.32;;;;;;;9.10;52.96;101605.66;4944680;28;97366;-83
2022/03/15 05:56:41;;;;;;;24.13;8.27;;;;;;;9.18;52.99;101616.94;4979348;28;101206;-80
2022/03/15 05:59:08;;;;;;;22.17;7.68;;;;;;;9.23;52.81;101617.78;4944760;28;101027;-82
2022/03/15 06:01:33;;;;;;;18.30;8.63;;;;;;;9.22;52.98;101615.16;4920937;28;97222;-80
2022/03/15 06:03:59;;;;;;;18.50;7.60;;;;;;;9.16;53.17;101604.72;4937523;28;97386;-80
2022/03/15 06:06:25;;;;;;;16.85;7.35;;;;;;;9.24;53.11;101622.13;4938341;28;101083;-83
2022/03/15 06:08:51;;;;;;;19.58;8.20;;;;;;;9.17;52.86;101604.75;4934333;28;101970;-79
2022/03/15 06:11:19;;;;;;;27.58;8.55;;;;;;;9.35;52.85;101621.19;4955460;28;97228;-85
2022/03/15 06:13:45;;;;;;;26.55;8.70;;;;;;;9.41;53.05;101616.75;4933349;28;97457;-84
2022/03/15 06:16:11;;;;;;;21.08;8.07;;;;;;;9.22;52.64;101576.75;4958451;28;101093;-84
2022/03/15 06:18:38;;;;;;;20.55;7.65;;;;;;;9.21;52.58;101575.00;4946533;28;98401;-84
2022/03/15 06:21:04;;;;;;;15.82;8.30;;;;;;;9.54;53.05;101635.88;4949651;28;96934;-84
2022/03/15 06:23:30;;;;;;;15.65;8.38;;;;;;;9.49;53.29;101622.81;5007839;28;96961;-83
2022/03/15 06:25:55;;;;;;;17.63;8.88;;;;;;;9.49;53.15;101619.31;4971626;28;101511;-84
2022/03/15 06:28:21;;;;;;;22.48;7.97;;;;;;;9.70;52.54;101632.22;4938994;28;101209;-84
2022/03/15 06:30:47;;;;;;;21.48;9.00;;;;;;;9.53;52.65;101574.69;5002586;28;96881;-85
2022/03/15 06:33:15;;;;;;;24.00;8.75;;;;;;;9.97;52.59;101624.94;4975575;28;97460;-82
2022/03/15 06:35:46;;;;;;;17.08;9.43;;;;;;;10.15;52.43;101618.63;4938822;28;101604;-82
2022/03/15 06:38:11;;;;;;;12.55;7.75;;;;;;;10.30;52.71;101620.25;4949770;28;101035;-88
2022/03/15 06:40:37;;;;;;;20.10;8.88;;;;;;;10.38;51.93;101595.66;4945738;28;97250;-80
2022/03/15 06:43:03;;;;;;;23.90;8.65;;;;;;;10.62;51.62;101619.84;4943386;28;97364;-83
2022/03/15 06:45:28;;;;;;;22.00;8.63;;;;;;;10.78;52.19;101613.47;4968806;28;101679;-78
2022/03/15 06:47:54;;;;;;;17.17;8.88;;;;;;;11.07;51.32;101617.41;4954724;28;101195;-84
2022/03/15 06:50:20;;;;;;;16.88;9.07;;;;;;;11.23;50.28;101613.66;4973339;28;99563;-83
2022/03/15 06:52:46;;;;;;;18.30;9.35;;;;;;;11.38;50.19;101611.69;4938815;28;97678;-83
2022/03/15 06:55:13;;;;;;;19.02;9.32;;;;;;;11.57;49.85;101620.97;4955414;28;98515;-84
2022/03/15 06:57:39;;;;;;;18.92;9.07;;;;;;;11.75;49.43;101622.41;4999882;28;98971;-83
2022/03/15 07:00:10;;;;;;;27.05;10.15;;;;;;;11.88;48.94;101617.81;4993094;28;96667;-84
2022/03/15 07:02:36;;;;;;;22.77;10.55;;;;;;;12.07;48.70;101621.84;4960068;28;97305;-84
2022/03/15 07:05:02;;;;;;;19.50;9.40;;;;;;;12.29;48.57;101619.63;4944701;28;100981;-84
2022/03/15 07:07:27;;;;;;;33.85;9.65;;;;;;;12.44;47.97;101614.03;4993509;28;98492;-82
2022/03/15 07:09:54;;;;;;;20.50;8.93;;;;;;;12.56;47.75;101614.69;4995646;28;96825;-83
2022/03/15 07:12:20;;;;;;;20.38;10.10;;;;;;;12.66;47.65;101611.81;4996129;28;97290;-84
2022/03/15 07:14:47;;;;;;;21.33;10.02;;;;;;;12.83;46.95;101618.50;4978644;28;101272;-84
2022/03/15 07:17:13;;;;;;;24.88;9.27;;;;;;;12.89;46.89;101599.91;4963767;28;101100;-84
2022/03/15 07:19:39;;;;;;;19.83;10.02;;;;;;;13.02;46.18;101585.50;4959757;28;97327;-84
2022/03/15 07:22:08;;;;;;;23.95;10.15;;;;;;;13.14;46.29;101584.34;4954661;28;96903;-84
2022/03/15 07:24:34;;;;;;;22.70;11.18;;;;;;;13.47;46.19;101619.59;4964141;28;101242;-83
2022/03/15 07:27:00;;;;;;;23.17;10.77;;;;;;;13.66;45.96;101619.13;4971135;28;101544;-84
2022/03/15 07:29:26;;;;;;;20.88;10.40;;;;;;;13.91;45.66;101614.94;4971153;28;97217;-82
2022/03/15 07:31:52;;;;;;;22.40;9.30;;;;;;;14.21;45.25;101620.25;4992608;28;96811;-84
2022/03/15 07:34:17;;;;;;;20.02;9.35;;;;;;;14.45;44.91;101619.53;4987370;28;101493;-83
2022/03/15 07:36:43;;;;;;;18.98;10.55;;;;;;;14.61;44.24;101609.41;4952216;28;101811;-83
2022/03/15 07:39:08;;;;;;;17.90;8.93;;;;;;;14.69;44.26;101612.69;4975572;28;96929;-85
2022/03/15 07:41:40;;;;;;;23.95;9.57;;;;;;;14.73;43.83;101597.59;4977116;28;96909;-84
2022/03/15 07:44:07;;;;;;;24.13;9.63;;;;;;;15.01;43.98;101605.53;4988756;28;101573;-85
2022/03/15 07:46:33;;;;;;;18.83;10.02;;;;;;;15.20;43.41;101611.06;4959876;28;101494;-84
2022/03/15 07:48:59;;;;;;;19.67;9.98;;;;;;;15.17;42.92;101575.00;4980870;28;96857;-84
2022/03/15 07:51:25;;;;;;;17.70;9.02;;;;;;;15.47;42.78;101600.47;4988442;28;96987;-80
2022/03/15 07:53:51;;;;;;;12.00;7.70;;;;;;;15.77;44.13;101609.19;4942994;28;101742;-79
2022/03/15 07:56:17;;;;;;;16.50;9.55;;;;;;;15.92;42.76;101598.03;4958701;28;97704;-80
2022/03/15 07:58:43;;;;;;;16.25;8.75;;;;;;;16.16;42.30;101606.00;4958810;28;97186;-82
2022/03/15 08:01:08;;;;;;;12.52;7.75;;;;;;;16.30;41.68;101601.91;4969606;28;98009;-82
2022/03/15 08:03:34;;;;;;;12.88;8.20;;;;;;;16.46;41.68;101604.88;4949897;28;102118;-79
2022/03/15 08:06:00;;;;;;;18.80;8.13;;;;;;;16.67;40.99;101604.97;4990278;28;98132;-81
2022/03/15 08:08:26;;;;;;;13.10;7.68;;;;;;;16.80;40.82;101577.06;4945834;28;96811;-84
2022/03/15 08:10:51;;;;;;;12.98;7.40;;;;;;;17.13;40.55;101590.75;4958070;28;97001;-84
2022/03/15 08:13:17;;;;;;;12.40;7.57;;;;;;;17.50;40.33;101602.44;4988158;28;101921;-84
2022/03/15 08:15:43;;;;;;;12.80;7.97;;;;;;;17.78;39.83;101598.66;4971144;28;101461;-80
2022/03/15 08:18:09;;;;;;;17.83;7.90;;;;;;;17.92;39.30;101579.41;4957396;28;97034;-79
2022/03/15 08:20:36;;;;;;;13.93;8.52;;;;;;;18.15;38.90;101597.88;4957285;28;97326;-79
2022/03/15 08:23:02;;;;;;;17.13;8.68;;;;;;;18.25;38.90;101582.34;4942318;28;101796;-79
2022/03/15 08:25:27;;;;;;;17.63;8.73;;;;;;;18.59;38.70;101591.41;4943535;28;101480;-80
2022/03/15 08:27:53;;;;;;;15.32;7.85;;;;;;;18.84;38.50;101575.16;4959903;28;96893;-81
2022/03/15 08:30:20;;;;;;;20.60;8.45;;;;;;;19.13;37.69;101585.22;4963914;28;97966;-80
2022/03/15 08:32:46;;;;;;;13.43;8.23;;;;;;;19.37;37.43;101587.59;4963012;28;97600;-80
2022/03/15 08:35:12;;;;;;;15.20;6.97;;;;;;;19.46;37.06;101584.47;4941525;28;101133;-80
2022/03/15 08:37:37;;;;;;;11.73;8.13;;;;;;;19.53;37.10;101587.69;4974083;28;97329;-79
2022/03/15 08:40:04;;;;;;;14.40;7.68;;;;;;;19.68;37.26;101586.91;4960035;28;97211;-79
2022/03/15 08:42:29;;;;;;;12.15;7.18;;;;;;;19.84;36.72;101569.19;4965201;28;101062;-81
2022/03/15 08:44:55;;;;;;;12.23;7.43;;;;;;;20.14;36.24;101565.81;4956840;28;98463;-89
2022/03/15 08:47:21;;;;;;;9.52;7.43;;;;;;;20.37;35.99;101566.38;4960767;28;97257;-88
2022/03/15 08:49:46;;;;;;;16.10;9.38;;;;;;;20.35;35.79;101529.09;4950407;28;97237;-88
2022/03/15 08:52:12;;;;;;;12.43;8.30;;;;;;;20.68;35.53;101549.50;4951763;28;101121;-88
2022/03/15 08:54:38;;;;;;;14.18;8.45;;;;;;;20.72;35.07;101557.25;4964821;28;100590;-87
2022/03/15 08:57:04;;;;;;;17.73;8.77;;;;;;;20.32;35.21;101499.94;4961751;28;97617;-88
2022/03/15 08:59:30;;;;;;;11.60;8.25;;;;;;;20.74;35.13;101536.69;4981834;28;97610;-90
2022/03/15 09:01:56;;;;;;;13.73;8.55;;;;;;;20.96;35.06;101540.78;4989109;28;101299;-89
2022/03/15 09:04:23;;;;;;;16.00;9.45;;;;;;;21.17;34.69;101552.00;4949601;28;98976;-88
2022/03/15 09:06:48;;;;;;;17.50;8.88;;;;;;;21.12;34.90;101533.59;4960616;28;97055;-89
2022/03/15 09:09:20;;;;;;;11.77;8.75;;;;;;;21.09;34.55;101512.44;4952185;28;96870;-89
2022/03/15 09:11:46;;;;;;;21.42;10.07;;;;;;;21.25;34.36;101529.22;4959106;28;97616;-88
2022/03/15 09:14:13;;;;;;;13.32;8.50;;;;;;;21.28;34.40;101530.00;4969224;28;101411;-88
2022/03/15 09:16:39;;;;;;;21.88;10.70;;;;;;;21.07;34.18;101476.09;4977370;28;97345;-89
2022/03/15 09:19:06;;;;;;;29.08;11.15;;;;;;;21.41;34.40;101504.31;4967674;28;96911;-88
2022/03/15 09:21:32;;;;;;;13.88;9.80;;;;;;;21.28;34.06;101500.63;4975792;28;100053;-88
2022/03/15 09:23:58;;;;;;;15.52;8.80;;;;;;;21.58;34.84;101548.69;4966965;28;100114;-88
2022/03/15 09:26:24;;;;;;;16.00;9.38;;;;;;;21.91;34.64;101524.38;4952307;28;96789;-87
2022/03/15 09:28:51;;;;;;;18.73;10.32;;;;;;;22.20;33.82;101511.88;4969780;28;97411;-88
2022/03/15 09:31:17;;;;;;;20.15;12.20;;;;;;;22.45;33.20;101534.34;4950966;28;100462;-90
2022/03/15 09:33:43;;;;;;;17.88;10.70;;;;;;;22.43;33.14;101536.25;4948300;28;101321;-89
2022/03/15 09:36:09;;;;;;;19.65;10.88;;;;;;;22.59;32.95;101529.81;4970349;28;96739;-85
2022/03/15 09:38:35;;;;;;;27.15;11.38;;;;;;;22.71;32.86;101522.78;4957094;28;96955;-83
2022/03/15 09:41:04;;;;;;;15.18;9.98;;;;;;;22.75;32.39;101529.69;4964662;28;101066;-85
2022/03/15 09:43:38;;;;;;;14.75;11.20;;;;;;;22.65;31.84;101519.69;4990090;28;101673;-88
2022/03/15 09:46:05;;;;;;;19.63;11.98;;;;;;;22.51;32.39;101504.53;4945804;28;96881;-91
2022/03/15 09:48:31;;;;;;;18.48;11.15;;;;;;;22.69;32.36;101511.34;5006728;28;97016;-87
2022/03/15 09:50:57;;;;;;;16.58;10.98;;;;;;;22.74;32.11;101517.25;4976595;28;100696;-88
2022/03/15 09:53:23;;;;;;;19.35;11.77;;;;;;;22.76;31.89;101501.09;4998605;28;99989;-88
2022/03/15 09:55:49;;;;;;;18.10;13.10;;;;;;;22.91;31.89;101516.13;4997803;28;96667;-87
2022/03/15 09:58:19;;;;;;;17.20;12.50;;;;;;;22.94;31.62;101507.88;4969444;27;96056;-89
2022/03/15 10:00:46;;;;;;;14.40;11.40;;;;;;;22.86;31.27;101502.19;4980418;28;97118;-86
2022/03/15 10:03:13;;;;;;;15.10;11.85;;;;;;;22.69;31.38;101481.03;4971551;28;100356;-87
2022/03/15 10:05:40;;;;;;;15.98;12.52;;;;;;;22.83;31.55;101484.53;4982377;28;96699;-86
2022/03/15 10:08:07;;;;;;;16.65;11.95;;;;;;;22.75;31.64;101477.97;5017889;28;96853;-89
2022/03/15 10:10:32;;;;;;;14.27;10.48;;;;;;;22.76;31.67;101483.22;4977920;28;100070;-88
2022/03/15 10:12:58;;;;;;;17.13;10.90;;;;;;;22.74;31.27;101479.78;4994233;28;100260;-90
2022/03/15 10:15:25;;;;;;;14.93;10.65;;;;;;;22.73;31.30;101482.56;5001108;28;96681;-86
2022/03/15 10:17:55;;;;;;;18.48;11.52;;;;;;;22.33;31.25;101466.47;4973156;28;96811;-90
2022/03/15 10:20:28;;;;;;;15.90;10.68;;;;;;;22.26;31.48;101482.06;4960689;28;101341;-85
2022/03/15 10:22:59;;;;;;;14.18;11.25;;;;;;;21.89;31.79;101459.47;4961199;28;100900;-90
2022/03/15 10:25:27;;;;;;;14.85;10.63;;;;;;;21.85;32.28;101468.66;4962884;28;96784;-92
2022/03/15 10:28:01;;;;;;;16.73;12.38;;;;;;;21.72;32.31;101470.38;4988248;28;97176;-88
2022/03/15 10:30:28;;;;;;;14.38;11.50;;;;;;;21.59;32.50;101462.28;4993204;28;98100;-91
2022/03/15 10:32:55;;;;;;;16.92;10.80;;;;;;;21.60;32.48;101456.81;4976842;28;101239;-91
2022/03/15 10:35:25;;;;;;;16.38;11.07;;;;;;;21.54;32.47;101438.50;4946194;28;97240;-91
2022/03/15 10:37:54;;;;;;;18.40;12.13;;;;;;;21.48;32.71;101461.09;4961749;28;96916;-91
2022/03/15 10:40:41;;;;;;;20.77;12.07;;;;;;;21.34;32.80;101449.53;4959049;28;98054;-89
2022/03/15 10:43:20;;;;;;;20.75;11.88;;;;;;;21.41;33.29;101443.75;4969612;28;98393;-92
2022/03/15 10:45:55;;;;;;;18.60;11.57;;;;;;;21.35;32.95;101433.44;4990792;28;96711;-92
2022/03/15 10:48:26;;;;;;;15.95;11.00;;;;;;;21.33;32.96;101421.13;4988321;28;96846;-91
2022/03/15 10:50:56;;;;;;;20.42;11.30;;;;;;;21.33;32.87;101432.66;4943939;28;101640;-92
2022/03/15 10:53:28;;;;;;;15.05;9.25;;;;;;;21.30;32.87;101432.84;4980160;28;98582;-92
2022/03/15 10:56:12;;;;;;;19.08;10.30;;;;;;;21.18;33.56;101417.59;4943370;28;97599;-90
2022/03/15 10:58:45;;;;;;;12.73;9.75;;;;;;;21.21;32.78;101428.94;5007528;28;96874;-91
2022/03/15 11:01:11;;;;;;;12.65;9.70;;;;;;;21.07;32.98;101436.91;4995457;28;98988;-92
2022/03/15 11:03:37;;;;;;;19.23;8.38;;;;;;;20.90;32.46;101419.25;4968315;28;100124;-91
2022/03/15 11:06:08;;;;;;;10.38;7.00;;;;;;;20.60;32.77;101413.94;4996888;28;97331;-90
2022/03/15 11:08:36;;;;;;;11.25;7.07;;;;;;;20.35;32.65;101428.63;4985165;28;97901;-83
2022/03/15 11:11:06;;;;;;;10.15;7.13;;;;;;;20.21;32.03;101425.03;4985855;28;100592;-83
2022/03/15 11:13:34;;;;;;;9.55;6.45;;;;;;;20.13;31.88;101417.50;5022605;28;100339;-82